sensor_id;sensor_type;location;lat;lon;timestamp;pressure;altitude;pressure_sealevel;temperature;humidity
69198;BME280;56311;50.298;8.514;2022-08-21T00:00:09;62402.38;;;-147.88;100.00
69198;BME280;56311;50.298;8.514;2022-08-21T00:02:45;62402.38;;;-147.88;100.00
69198;BME280;56311;50.298;8.514;2022-08-21T00:05:13;62402.38;;;-147.88;100.00
69198;BME280;56311;50.298;8.514;2022-08-21T00:07:40;62402.38;;;-147.88;100.00
69198;BME280;56311;50.298;8.514;2022-08-21T00:10:09;62402.38;;;-147.88;100.00
69198;BME280;56311;50.298;8.514;2022-08-21T00:12:36;62402.38;;;-147.88;100.00
69198;BME280;56311;50.298;8.514;2022-08-21T00:15:04;62402.38;;;-147.88;100.00
69198;BME280;56311;50.298;8.514;2022-08-21T00:17:34;62402.38;;;-147.88;100.00
69198;BME280;56311;50.298;8.514;2022-08-21T00:20:04;62402.38;;;-147.88;100.00
69198;BME280;56311;50.298;8.514;2022-08-21T00:22:49;62402.38;;;-147.88;100.00
69198;BME280;56311;50.298;8.514;2022-08-21T00:25:17;62402.38;;;-147.88;100.00
69198;BME280;56311;50.298;8.514;2022-08-21T00:27:46;62402.38;;;-147.88;100.00
69198;BME280;56311;50.298;8.514;2022-08-21T00:30:15;62402.38;;;-147.88;100.00
69198;BME280;56311;50.298;8.514;2022-08-21T00:32:49;62402.38;;;-147.88;100.00
69198;BME280;56311;50.298;8.514;2022-08-21T00:35:23;62402.38;;;-147.88;100.00
69198;BME280;56311;50.298;8.514;2022-08-21T00:37:50;62402.38;;;-147.88;100.00
69198;BME280;56311;50.298;8.514;2022-08-21T00:40:20;62402.38;;;-147.88;100.00
69198;BME280;56311;50.298;8.514;2022-08-21T00:42:47;62402.38;;;-147.88;100.00
69198;BME280;56311;50.298;8.514;2022-08-21T00:45:20;62402.38;;;-147.88;100.00
69198;BME280;56311;50.298;8.514;2022-08-21T00:47:48;62402.38;;;-147.88;100.00
69198;BME280;56311;50.298;8.514;2022-08-21T00:50:15;62402.38;;;-147.88;100.00
69198;BME280;56311;50.298;8.514;2022-08-21T00:52:49;62402.38;;;-147.88;100.00
69198;BME280;56311;50.298;8.514;2022-08-21T00:55:19;62402.38;;;-147.88;100.00
69198;BME280;56311;50.298;8.514;2022-08-21T00:57:50;62402.38;;;-147.88;100.00
69198;BME280;56311;50.298;8.514;2022-08-21T01:00:22;62402.38;;;-147.88;100.00
69198;BME280;56311;50.298;8.514;2022-08-21T01:02:49;62402.38;;;-147.88;100.00
69198;BME280;56311;50.298;8.514;2022-08-21T01:05:17;62402.38;;;-147.88;100.00
69198;BME280;56311;50.298;8.514;2022-08-21T01:07:44;62402.38;;;-147.88;100.00
69198;BME280;56311;50.298;8.514;2022-08-21T01:10:13;62402.38;;;-147.88;100.00
69198;BME280;56311;50.298;8.514;2022-08-21T01:12:53;62402.38;;;-147.88;100.00
69198;BME280;56311;50.298;8.514;2022-08-21T01:15:23;62402.38;;;-147.88;100.00
69198;BME280;56311;50.298;8.514;2022-08-21T01:17:51;62402.38;;;-147.88;100.00
69198;BME280;56311;50.298;8.514;2022-08-21T01:20:19;62402.38;;;-147.88;100.00
69198;BME280;56311;50.298;8.514;2022-08-21T01:22:47;62402.38;;;-147.88;100.00
69198;BME280;56311;50.298;8.514;2022-08-21T01:25:16;62402.38;;;-147.88;100.00
69198;BME280;56311;50.298;8.514;2022-08-21T01:27:43;62402.38;;;-147.88;100.00
69198;BME280;56311;50.298;8.514;2022-08-21T01:30:12;62402.38;;;-147.88;100.00
69198;BME280;56311;50.298;8.514;2022-08-21T01:32:39;62402.38;;;-147.88;100.00
69198;BME280;56311;50.298;8.514;2022-08-21T01:35:07;62402.38;;;-147.88;100.00
69198;BME280;56311;50.298;8.514;2022-08-21T01:37:34;62402.38;;;-147.88;100.00
69198;BME280;56311;50.298;8.514;2022-08-21T01:40:05;62402.38;;;-147.88;100.00
69198;BME280;56311;50.298;8.514;2022-08-21T01:42:33;62402.38;;;-147.88;100.00
69198;BME280;56311;50.298;8.514;2022-08-21T01:45:00;62402.38;;;-147.88;100.00
69198;BME280;56311;50.298;8.514;2022-08-21T01:47:27;62402.38;;;-147.88;100.00
69198;BME280;56311;50.298;8.514;2022-08-21T01:49:54;62402.38;;;-147.88;100.00
69198;BME280;56311;50.298;8.514;2022-08-21T01:52:21;62402.38;;;-147.88;100.00
69198;BME280;56311;50.298;8.514;2022-08-21T01:54:48;62402.38;;;-147.88;100.00
69198;BME280;56311;50.298;8.514;2022-08-21T01:57:23;62402.38;;;-147.88;100.00
69198;BME280;56311;50.298;8.514;2022-08-21T01:59:52;62402.38;;;-147.88;100.00
69198;BME280;56311;50.298;8.514;2022-08-21T02:02:19;62402.38;;;-147.88;100.00
69198;BME280;56311;50.298;8.514;2022-08-21T02:04:46;97797.53;;;25.33;55.66
69198;BME280;56311;50.298;8.514;2022-08-21T02:07:13;97843.91;;;14.12;86.96
69198;BME280;56311;50.298;8.514;2022-08-21T02:09:40;97850.56;;;14.06;87.66
69198;BME280;56311;50.298;8.514;2022-08-21T02:12:10;97842.22;;;14.03;88.03
69198;BME280;56311;50.298;8.514;2022-08-21T02:14:38;97847.38;;;13.90;88.65
69198;BME280;56311;50.298;8.514;2022-08-21T02:17:05;97849.63;;;13.88;89.11
69198;BME280;56311;50.298;8.514;2022-08-21T02:19:35;97855.16;;;13.83;89.88
69198;BME280;56311;50.298;8.514;2022-08-21T02:22:07;97843.00;;;13.80;90.26
69198;BME280;56311;50.298;8.514;2022-08-21T02:24:34;97848.75;;;13.79;90.99
69198;BME280;56311;50.298;8.514;2022-08-21T02:27:04;97846.03;;;13.79;91.32
69198;BME280;56311;50.298;8.514;2022-08-21T02:29:31;97838.97;;;13.78;91.16
69198;BME280;56311;50.298;8.514;2022-08-21T02:31:59;97842.59;;;13.73;90.96
69198;BME280;56311;50.298;8.514;2022-08-21T02:34:28;97840.50;;;13.70;91.14
69198;BME280;56311;50.298;8.514;2022-08-21T02:36:55;97836.38;;;13.73;91.35
69198;BME280;56311;50.298;8.514;2022-08-21T02:39:25;97838.59;;;13.71;90.97
69198;BME280;56311;50.298;8.514;2022-08-21T02:41:53;97840.59;;;13.65;91.17
69198;BME280;56311;50.298;8.514;2022-08-21T02:44:19;97840.59;;;13.65;90.86
69198;BME280;56311;50.298;8.514;2022-08-21T02:46:55;97843.75;;;13.58;91.76
69198;BME280;56311;50.298;8.514;2022-08-21T02:49:23;97843.88;;;13.53;91.67
69198;BME280;56311;50.298;8.514;2022-08-21T02:51:50;97841.94;;;13.53;92.46
69198;BME280;56311;50.298;8.514;2022-08-21T02:54:17;97832.19;;;13.52;92.55
69198;BME280;56311;50.298;8.514;2022-08-21T02:56:44;97838.34;;;13.44;93.37
69198;BME280;56311;50.298;8.514;2022-08-21T02:59:11;97827.66;;;13.48;93.57
69198;BME280;56311;50.298;8.514;2022-08-21T03:01:37;97835.13;;;13.42;94.58
69198;BME280;56311;50.298;8.514;2022-08-21T03:04:04;97829.91;;;13.46;94.48
69198;BME280;56311;50.298;8.514;2022-08-21T03:06:32;97832.41;;;13.42;94.34
69198;BME280;56311;50.298;8.514;2022-08-21T03:09:00;97836.72;;;13.43;94.02
69198;BME280;56311;50.298;8.514;2022-08-21T03:11:27;97828.56;;;13.43;94.12
69198;BME280;56311;50.298;8.514;2022-08-21T03:13:55;97832.41;;;13.42;94.52
69198;BME280;56311;50.298;8.514;2022-08-21T03:16:22;97824.13;;;13.33;94.48
69198;BME280;56311;50.298;8.514;2022-08-21T03:18:49;97831.47;;;13.33;94.18
69198;BME280;56311;50.298;8.514;2022-08-21T03:21:16;97827.47;;;13.30;93.79
69198;BME280;56311;50.298;8.514;2022-08-21T03:23:46;97833.19;;;13.29;94.62
69198;BME280;56311;50.298;8.514;2022-08-21T03:26:14;97834.00;;;13.29;94.47
69198;BME280;56311;50.298;8.514;2022-08-21T03:28:41;97833.69;;;13.31;95.01
69198;BME280;56311;50.298;8.514;2022-08-21T03:31:08;97833.56;;;13.36;95.09
69198;BME280;56311;50.298;8.514;2022-08-21T03:33:35;97831.69;;;13.36;95.72
69198;BME280;56311;50.298;8.514;2022-08-21T03:36:05;97826.84;;;13.33;96.22
69198;BME280;56311;50.298;8.514;2022-08-21T03:38:33;97827.16;;;13.32;96.80
69198;BME280;56311;50.298;8.514;2022-08-21T03:41:06;97822.31;;;13.29;96.72
69198;BME280;56311;50.298;8.514;2022-08-21T03:43:34;97828.78;;;13.19;96.71
69198;BME280;56311;50.298;8.514;2022-08-21T03:46:03;97825.47;;;13.22;97.14
69198;BME280;56311;50.298;8.514;2022-08-21T03:48:30;97828.38;;;13.26;97.01
69198;BME280;56311;50.298;8.514;2022-08-21T03:50:57;97833.28;;;13.24;97.19
69198;BME280;56311;50.298;8.514;2022-08-21T03:53:25;97832.00;;;13.21;97.56
69198;BME280;56311;50.298;8.514;2022-08-21T03:55:52;97842.97;;;13.16;97.35
69198;BME280;56311;50.298;8.514;2022-08-21T03:58:23;97845.50;;;13.12;97.37
69198;BME280;56311;50.298;8.514;2022-08-21T04:00:54;97846.47;;;13.16;98.04
69198;BME280;56311;50.298;8.514;2022-08-21T04:03:22;97850.09;;;13.12;98.39
69198;BME280;56311;50.298;8.514;2022-08-21T04:05:49;97850.41;;;13.10;98.66
69198;BME280;56311;50.298;8.514;2022-08-21T04:08:17;97851.03;;;13.07;99.37
69198;BME280;56311;50.298;8.514;2022-08-21T04:10:46;97853.75;;;13.07;99.20
69198;BME280;56311;50.298;8.514;2022-08-21T04:13:14;97857.56;;;13.06;99.39
69198;BME280;56311;50.298;8.514;2022-08-21T04:15:43;97860.66;;;12.99;100.00
69198;BME280;56311;50.298;8.514;2022-08-21T04:18:10;97855.84;;;12.96;100.00
69198;BME280;56311;50.298;8.514;2022-08-21T04:20:37;97861.06;;;12.93;99.45
69198;BME280;56311;50.298;8.514;2022-08-21T04:23:04;97856.44;;;12.93;99.08
69198;BME280;56311;50.298;8.514;2022-08-21T04:25:31;97869.03;;;12.89;99.07
69198;BME280;56311;50.298;8.514;2022-08-21T04:27:58;97864.56;;;12.79;99.73
69198;BME280;56311;50.298;8.514;2022-08-21T04:30:25;97868.41;;;12.78;99.61
69198;BME280;56311;50.298;8.514;2022-08-21T04:32:57;97870.59;;;12.76;99.73
69198;BME280;56311;50.298;8.514;2022-08-21T04:35:26;97872.50;;;12.76;99.25
69198;BME280;56311;50.298;8.514;2022-08-21T04:37:54;97879.25;;;12.78;99.46
69198;BME280;56311;50.298;8.514;2022-08-21T04:40:22;97880.06;;;12.79;99.16
69198;BME280;56311;50.298;8.514;2022-08-21T04:42:51;97881.16;;;12.78;98.65
69198;BME280;56311;50.298;8.514;2022-08-21T04:45:19;97886.88;;;12.76;99.20
69198;BME280;56311;50.298;8.514;2022-08-21T04:47:47;97888.00;;;12.75;100.00
69198;BME280;56311;50.298;8.514;2022-08-21T04:50:20;97881.66;;;12.80;99.54
69198;BME280;56311;50.298;8.514;2022-08-21T04:52:48;97882.25;;;12.77;100.00
69198;BME280;56311;50.298;8.514;2022-08-21T04:55:16;97892.72;;;12.83;99.43
69198;BME280;56311;50.298;8.514;2022-08-21T04:57:45;97879.94;;;12.84;99.50
69198;BME280;56311;50.298;8.514;2022-08-21T05:00:15;97885.78;;;12.91;98.72
69198;BME280;56311;50.298;8.514;2022-08-21T05:02:44;97889.22;;;12.97;97.94
69198;BME280;56311;50.298;8.514;2022-08-21T05:05:14;97889.84;;;13.08;96.92
69198;BME280;56311;50.298;8.514;2022-08-21T05:07:44;97894.28;;;13.17;96.84
69198;BME280;56311;50.298;8.514;2022-08-21T05:10:12;97893.38;;;13.22;96.06
69198;BME280;56311;50.298;8.514;2022-08-21T05:12:41;97888.84;;;13.31;96.07
69198;BME280;56311;50.298;8.514;2022-08-21T05:15:10;97894.59;;;13.44;96.26
69198;BME280;56311;50.298;8.514;2022-08-21T05:17:39;97894.50;;;13.49;96.13
69198;BME280;56311;50.298;8.514;2022-08-21T05:20:06;97897.63;;;13.56;95.64
69198;BME280;56311;50.298;8.514;2022-08-21T05:22:33;97896.31;;;13.67;95.27
69198;BME280;56311;50.298;8.514;2022-08-21T05:25:02;97898.47;;;13.79;94.97
69198;BME280;56311;50.298;8.514;2022-08-21T05:27:35;97895.22;;;13.91;94.44
69198;BME280;56311;50.298;8.514;2022-08-21T05:30:06;97903.50;;;14.00;94.86
69198;BME280;56311;50.298;8.514;2022-08-21T05:32:34;97897.81;;;14.10;95.46
69198;BME280;56311;50.298;8.514;2022-08-21T05:35:02;97897.06;;;14.19;95.29
69198;BME280;56311;50.298;8.514;2022-08-21T05:37:29;97889.16;;;14.31;94.60
69198;BME280;56311;50.298;8.514;2022-08-21T05:39:56;97897.88;;;14.42;94.24
69198;BME280;56311;50.298;8.514;2022-08-21T05:42:45;97898.94;;;14.55;94.81
69198;BME280;56311;50.298;8.514;2022-08-21T05:45:21;97900.09;;;14.62;94.48
69198;BME280;56311;50.298;8.514;2022-08-21T05:48:08;97900.09;;;14.62;94.48
69198;BME280;56311;50.298;8.514;2022-08-21T05:50:36;97896.09;;;14.83;94.56
69198;BME280;56311;50.298;8.514;2022-08-21T05:53:04;97894.41;;;14.95;95.22
69198;BME280;56311;50.298;8.514;2022-08-21T05:55:33;97898.59;;;15.02;94.66
69198;BME280;56311;50.298;8.514;2022-08-21T05:58:03;97905.03;;;15.15;94.08
69198;BME280;56311;50.298;8.514;2022-08-21T06:00:31;97905.03;;;15.15;94.08
69198;BME280;56311;50.298;8.514;2022-08-21T06:02:59;97918.00;;;15.40;93.59
69198;BME280;56311;50.298;8.514;2022-08-21T06:05:26;97905.97;;;15.50;92.49
69198;BME280;56311;50.298;8.514;2022-08-21T06:08:02;97908.59;;;15.64;91.62
69198;BME280;56311;50.298;8.514;2022-08-21T06:10:29;97912.13;;;15.73;92.50
69198;BME280;56311;50.298;8.514;2022-08-21T06:12:56;97905.75;;;15.87;91.83
69198;BME280;56311;50.298;8.514;2022-08-21T06:15:25;97905.75;;;15.87;91.83
69198;BME280;56311;50.298;8.514;2022-08-21T06:17:53;97915.59;;;16.14;91.28
69198;BME280;56311;50.298;8.514;2022-08-21T06:20:21;97909.50;;;16.26;90.50
69198;BME280;56311;50.298;8.514;2022-08-21T06:22:48;97905.47;;;16.41;89.35
69198;BME280;56311;50.298;8.514;2022-08-21T06:25:15;97888.91;;;16.55;88.20
69198;BME280;56311;50.298;8.514;2022-08-21T06:27:42;97895.78;;;16.70;87.74
69198;BME280;56311;50.298;8.514;2022-08-21T06:30:09;97894.34;;;16.81;87.36
69198;BME280;56311;50.298;8.514;2022-08-21T06:32:38;97894.44;;;17.02;86.67
69198;BME280;56311;50.298;8.514;2022-08-21T06:35:06;97889.72;;;17.21;86.29
69198;BME280;56311;50.298;8.514;2022-08-21T06:37:33;97892.53;;;17.42;84.66
69198;BME280;56311;50.298;8.514;2022-08-21T06:40:01;97889.47;;;17.43;83.35
69198;BME280;56311;50.298;8.514;2022-08-21T06:42:29;97892.41;;;17.59;82.56
69198;BME280;56311;50.298;8.514;2022-08-21T06:44:58;97892.50;;;17.72;81.12
69198;BME280;56311;50.298;8.514;2022-08-21T06:47:25;62402.38;;;-147.88;100.00
69198;BME280;56311;50.298;8.514;2022-08-21T06:49:53;62402.38;;;-147.88;100.00
69198;BME280;56311;50.298;8.514;2022-08-21T06:52:21;62402.38;;;-147.88;100.00
69198;BME280;56311;50.298;8.514;2022-08-21T06:54:48;62402.38;;;-147.88;100.00
69198;BME280;56311;50.298;8.514;2022-08-21T06:57:15;62402.38;;;-147.88;100.00
69198;BME280;56311;50.298;8.514;2022-08-21T06:59:42;62402.38;;;-147.88;100.00
69198;BME280;56311;50.298;8.514;2022-08-21T07:02:09;97892.50;;;17.72;81.12
69198;BME280;56311;50.298;8.514;2022-08-21T07:04:36;97888.13;;;18.76;71.77
69198;BME280;56311;50.298;8.514;2022-08-21T07:07:05;97897.00;;;18.95;70.74
69198;BME280;56311;50.298;8.514;2022-08-21T07:09:32;97896.69;;;19.08;70.20
69198;BME280;56311;50.298;8.514;2022-08-21T07:12:00;97898.28;;;19.22;69.42
69198;BME280;56311;50.298;8.514;2022-08-21T07:14:28;97895.00;;;19.29;68.49
69198;BME280;56311;50.298;8.514;2022-08-21T07:16:55;97889.16;;;19.43;67.74
69198;BME280;56311;50.298;8.514;2022-08-21T07:19:22;62402.38;;;-147.88;100.00
69198;BME280;56311;50.298;8.514;2022-08-21T07:21:50;62402.38;;;-147.88;100.00
69198;BME280;56311;50.298;8.514;2022-08-21T07:24:18;97893.03;;;19.79;62.74
69198;BME280;56311;50.298;8.514;2022-08-21T07:26:46;97894.69;;;20.08;62.28
69198;BME280;56311;50.298;8.514;2022-08-21T07:29:13;97895.56;;;20.25;61.15
69198;BME280;56311;50.298;8.514;2022-08-21T07:31:41;97888.63;;;20.43;60.08
69198;BME280;56311;50.298;8.514;2022-08-21T07:34:09;97890.22;;;20.44;59.25
69198;BME280;56311;50.298;8.514;2022-08-21T07:36:36;97888.22;;;20.57;59.46
69198;BME280;56311;50.298;8.514;2022-08-21T07:39:05;97888.59;;;20.56;58.50
69198;BME280;56311;50.298;8.514;2022-08-21T07:41:33;97883.38;;;20.66;58.13
69198;BME280;56311;50.298;8.514;2022-08-21T07:44:02;97883.38;;;20.66;100.00
69198;BME280;56311;50.298;8.514;2022-08-21T07:46:32;62402.38;;;-147.88;100.00
69198;BME280;56311;50.298;8.514;2022-08-21T07:48:59;62402.38;;;-147.88;100.00
69198;BME280;56311;50.298;8.514;2022-08-21T07:51:28;62402.38;;;-147.88;100.00
69198;BME280;56311;50.298;8.514;2022-08-21T07:53:57;62402.38;;;-147.88;100.00
69198;BME280;56311;50.298;8.514;2022-08-21T07:56:27;62402.38;;;-147.88;100.00
69198;BME280;56311;50.298;8.514;2022-08-21T07:58:55;62402.38;;;-147.88;100.00
69198;BME280;56311;50.298;8.514;2022-08-21T08:01:24;62402.38;;;-147.88;100.00
69198;BME280;56311;50.298;8.514;2022-08-21T08:03:51;62402.38;;;-147.88;100.00
69198;BME280;56311;50.298;8.514;2022-08-21T08:06:18;62402.38;;;-147.88;100.00
69198;BME280;56311;50.298;8.514;2022-08-21T08:08:46;62402.38;;;-147.88;100.00
69198;BME280;56311;50.298;8.514;2022-08-21T08:11:14;62402.38;;;-147.88;100.00
69198;BME280;56311;50.298;8.514;2022-08-21T08:13:43;62402.38;;;-147.88;100.00
69198;BME280;56311;50.298;8.514;2022-08-21T08:16:12;62402.38;;;-147.88;100.00
69198;BME280;56311;50.298;8.514;2022-08-21T08:18:39;62402.38;;;-147.88;100.00
69198;BME280;56311;50.298;8.514;2022-08-21T08:21:08;62402.38;;;-147.88;100.00
69198;BME280;56311;50.298;8.514;2022-08-21T08:23:36;62402.38;;;-147.88;100.00
69198;BME280;56311;50.298;8.514;2022-08-21T08:26:03;62402.38;;;-147.88;100.00
69198;BME280;56311;50.298;8.514;2022-08-21T08:28:31;62402.38;;;-147.88;100.00
69198;BME280;56311;50.298;8.514;2022-08-21T08:30:59;62402.38;;;-147.88;100.00
69198;BME280;56311;50.298;8.514;2022-08-21T08:33:28;62402.38;;;-147.88;100.00
69198;BME280;56311;50.298;8.514;2022-08-21T08:35:55;62402.38;;;-147.88;100.00
69198;BME280;56311;50.298;8.514;2022-08-21T08:38:24;62402.38;;;-147.88;100.00
69198;BME280;56311;50.298;8.514;2022-08-21T08:40:56;62402.38;;;-147.88;100.00
69198;BME280;56311;50.298;8.514;2022-08-21T08:43:28;62402.38;;;-147.88;100.00
69198;BME280;56311;50.298;8.514;2022-08-21T08:45:57;62402.38;;;-147.88;100.00
69198;BME280;56311;50.298;8.514;2022-08-21T08:48:39;62402.38;;;-147.88;100.00
69198;BME280;56311;50.298;8.514;2022-08-21T08:51:15;62402.38;;;-147.88;100.00
69198;BME280;56311;50.298;8.514;2022-08-21T08:53:49;62402.38;;;-147.88;100.00
69198;BME280;56311;50.298;8.514;2022-08-21T08:56:22;62402.38;;;-147.88;100.00
69198;BME280;56311;50.298;8.514;2022-08-21T08:58:52;62402.38;;;-147.88;100.00
69198;BME280;56311;50.298;8.514;2022-08-21T09:01:23;62402.38;;;-147.88;100.00
69198;BME280;56311;50.298;8.514;2022-08-21T09:03:56;62402.38;;;-147.88;100.00
69198;BME280;56311;50.298;8.514;2022-08-21T09:06:40;62402.38;;;-147.88;100.00
69198;BME280;56311;50.298;8.514;2022-08-21T09:09:22;62402.38;;;-147.88;100.00
69198;BME280;56311;50.298;8.514;2022-08-21T09:12:00;62402.38;;;-147.88;100.00
69198;BME280;56311;50.298;8.514;2022-08-21T09:14:41;62402.38;;;-147.88;100.00
69198;BME280;56311;50.298;8.514;2022-08-21T09:17:22;62402.38;;;-147.88;100.00
69198;BME280;56311;50.298;8.514;2022-08-21T09:20:07;62402.38;;;-147.88;100.00
69198;BME280;56311;50.298;8.514;2022-08-21T09:22:40;62402.38;;;-147.88;100.00
69198;BME280;56311;50.298;8.514;2022-08-21T09:25:15;62402.38;;;-147.88;100.00
69198;BME280;56311;50.298;8.514;2022-08-21T09:27:48;62402.38;;;-147.88;100.00
69198;BME280;56311;50.298;8.514;2022-08-21T09:30:17;62402.38;;;-147.88;100.00
69198;BME280;56311;50.298;8.514;2022-08-21T09:32:46;62402.38;;;-147.88;100.00
69198;BME280;56311;50.298;8.514;2022-08-21T09:35:17;62402.38;;;-147.88;100.00
69198;BME280;56311;50.298;8.514;2022-08-21T09:37:49;62402.38;;;-147.88;100.00
69198;BME280;56311;50.298;8.514;2022-08-21T09:40:28;62402.38;;;-147.88;100.00
69198;BME280;56311;50.298;8.514;2022-08-21T09:43:00;62402.38;;;-147.88;100.00
69198;BME280;56311;50.298;8.514;2022-08-21T09:45:29;62402.38;;;-147.88;100.00
69198;BME280;56311;50.298;8.514;2022-08-21T09:48:11;62402.38;;;-147.88;100.00
69198;BME280;56311;50.298;8.514;2022-08-21T09:53:20;62402.38;;;-147.88;100.00
69198;BME280;56311;50.298;8.514;2022-08-21T09:55:51;62402.38;;;-147.88;100.00
69198;BME280;56311;50.298;8.514;2022-08-21T09:58:40;62402.38;;;-147.88;100.00
69198;BME280;56311;50.298;8.514;2022-08-21T10:01:14;62402.38;;;-147.88;100.00
69198;BME280;56311;50.298;8.514;2022-08-21T10:03:42;62402.38;;;-147.88;100.00
69198;BME280;56311;50.298;8.514;2022-08-21T10:06:22;62402.38;;;-147.88;100.00
69198;BME280;56311;50.298;8.514;2022-08-21T10:08:49;62402.38;;;-147.88;100.00
69198;BME280;56311;50.298;8.514;2022-08-21T10:11:31;62402.38;;;-147.88;100.00
69198;BME280;56311;50.298;8.514;2022-08-21T10:14:05;62402.38;;;-147.88;100.00
69198;BME280;56311;50.298;8.514;2022-08-21T10:16:44;62402.38;;;-147.88;100.00
69198;BME280;56311;50.298;8.514;2022-08-21T10:19:21;62402.38;;;-147.88;100.00
69198;BME280;56311;50.298;8.514;2022-08-21T10:21:59;62402.38;;;-147.88;100.00
69198;BME280;56311;50.298;8.514;2022-08-21T10:24:32;62402.38;;;-147.88;100.00
69198;BME280;56311;50.298;8.514;2022-08-21T10:27:14;62402.38;;;-147.88;100.00
69198;BME280;56311;50.298;8.514;2022-08-21T10:29:49;62402.38;;;-147.88;100.00
69198;BME280;56311;50.298;8.514;2022-08-21T10:32:28;62402.38;;;-147.88;100.00
69198;BME280;56311;50.298;8.514;2022-08-21T10:35:05;62402.38;;;-147.88;100.00
69198;BME280;56311;50.298;8.514;2022-08-21T10:37:48;62402.38;;;-147.88;100.00
69198;BME280;56311;50.298;8.514;2022-08-21T10:40:24;62402.38;;;-147.88;100.00
69198;BME280;56311;50.298;8.514;2022-08-21T10:42:57;62402.38;;;-147.88;100.00
69198;BME280;56311;50.298;8.514;2022-08-21T10:45:38;62402.38;;;-147.88;100.00
69198;BME280;56311;50.298;8.514;2022-08-21T10:48:15;62402.38;;;-147.88;100.00
69198;BME280;56311;50.298;8.514;2022-08-21T10:50:47;62402.38;;;-147.88;100.00
69198;BME280;56311;50.298;8.514;2022-08-21T10:53:37;62402.38;;;-147.88;100.00
69198;BME280;56311;50.298;8.514;2022-08-21T10:56:14;62402.38;;;-147.88;100.00
69198;BME280;56311;50.298;8.514;2022-08-21T10:58:49;62402.38;;;-147.88;100.00
69198;BME280;56311;50.298;8.514;2022-08-21T11:01:22;62402.38;;;-147.88;100.00
69198;BME280;56311;50.298;8.514;2022-08-21T11:03:54;62402.38;;;-147.88;100.00
69198;BME280;56311;50.298;8.514;2022-08-21T11:06:31;62402.38;;;-147.88;100.00
69198;BME280;56311;50.298;8.514;2022-08-21T11:09:06;62402.38;;;-147.88;100.00
69198;BME280;56311;50.298;8.514;2022-08-21T11:11:42;62402.38;;;-147.88;100.00
69198;BME280;56311;50.298;8.514;2022-08-21T11:14:47;62402.38;;;-147.88;100.00
69198;BME280;56311;50.298;8.514;2022-08-21T11:17:23;62402.38;;;-147.88;100.00
69198;BME280;56311;50.298;8.514;2022-08-21T11:19:54;62402.38;;;-147.88;100.00
69198;BME280;56311;50.298;8.514;2022-08-21T11:22:33;62402.38;;;-147.88;100.00
69198;BME280;56311;50.298;8.514;2022-08-21T11:25:09;62402.38;;;-147.88;100.00
69198;BME280;56311;50.298;8.514;2022-08-21T11:27:42;62402.38;;;-147.88;100.00
69198;BME280;56311;50.298;8.514;2022-08-21T11:30:12;62402.38;;;-147.88;100.00
69198;BME280;56311;50.298;8.514;2022-08-21T11:32:59;62402.38;;;-147.88;100.00
69198;BME280;56311;50.298;8.514;2022-08-21T11:35:34;62402.38;;;-147.88;100.00
69198;BME280;56311;50.298;8.514;2022-08-21T11:38:15;62402.38;;;-147.88;100.00
69198;BME280;56311;50.298;8.514;2022-08-21T11:40:59;62402.38;;;-147.88;100.00
69198;BME280;56311;50.298;8.514;2022-08-21T11:43:36;62402.38;;;-147.88;100.00
69198;BME280;56311;50.298;8.514;2022-08-21T11:46:17;62402.38;;;-147.88;100.00
69198;BME280;56311;50.298;8.514;2022-08-21T11:49:01;62402.38;;;-147.88;100.00
69198;BME280;56311;50.298;8.514;2022-08-21T11:51:36;62402.38;;;-147.88;100.00
69198;BME280;56311;50.298;8.514;2022-08-21T11:54:09;62402.38;;;-147.88;100.00
69198;BME280;56311;50.298;8.514;2022-08-21T11:59:36;62402.38;;;-147.88;100.00
69198;BME280;56311;50.298;8.514;2022-08-21T12:02:10;62402.38;;;-147.88;100.00
69198;BME280;56311;50.298;8.514;2022-08-21T12:04:45;62402.38;;;-147.88;100.00
69198;BME280;56311;50.298;8.514;2022-08-21T12:07:13;97883.38;;;20.66;58.13
69198;BME280;56311;50.298;8.514;2022-08-21T12:09:52;97883.38;;;20.66;58.13
69198;BME280;56311;50.298;8.514;2022-08-21T12:12:27;97736.63;;;27.51;27.53
69198;BME280;56311;50.298;8.514;2022-08-21T12:15:23;97740.53;;;27.68;27.81
69198;BME280;56311;50.298;8.514;2022-08-21T12:17:54;97742.38;;;28.04;27.38
69198;BME280;56311;50.298;8.514;2022-08-21T12:20:32;97737.41;;;28.37;27.00
69198;BME280;56311;50.298;8.514;2022-08-21T12:23:05;97733.91;;;28.22;26.60
69198;BME280;56311;50.298;8.514;2022-08-21T12:25:40;62402.38;;;-147.88;100.00
69198;BME280;56311;50.298;8.514;2022-08-21T12:28:13;97733.91;;;28.22;26.60
69198;BME280;56311;50.298;8.514;2022-08-21T12:30:43;97741.69;;;28.52;26.41
69198;BME280;56311;50.298;8.514;2022-08-21T12:33:24;97739.53;;;28.78;26.53
69198;BME280;56311;50.298;8.514;2022-08-21T12:36:01;97736.50;;;28.54;26.27
69198;BME280;56311;50.298;8.514;2022-08-21T12:38:32;97724.28;;;28.94;25.93
69198;BME280;56311;50.298;8.514;2022-08-21T12:41:04;97725.66;;;28.67;25.98
69198;BME280;56311;50.298;8.514;2022-08-21T12:43:37;97734.72;;;28.26;26.85
69198;BME280;56311;50.298;8.514;2022-08-21T12:46:05;97727.72;;;28.59;26.00
69198;BME280;56311;50.298;8.514;2022-08-21T12:48:38;97734.69;;;28.86;26.05
69198;BME280;56311;50.298;8.514;2022-08-21T12:51:10;97722.41;;;29.21;25.53
69198;BME280;56311;50.298;8.514;2022-08-21T12:53:42;97727.53;;;29.30;26.03
69198;BME280;56311;50.298;8.514;2022-08-21T12:56:14;97719.66;;;29.60;25.66
69198;BME280;56311;50.298;8.514;2022-08-21T12:58:46;97727.72;;;28.59;26.74
69198;BME280;56311;50.298;8.514;2022-08-21T13:01:19;62402.38;;;-147.88;100.00
69198;BME280;56311;50.298;8.514;2022-08-21T13:03:48;97724.47;;;29.17;25.82
69198;BME280;56311;50.298;8.514;2022-08-21T13:06:37;97711.69;;;29.89;25.57
69198;BME280;56311;50.298;8.514;2022-08-21T13:09:06;97715.38;;;29.10;26.00